createdAt,value
2022-12-14T00:01:59.899Z,16.13
2022-12-14T00:06:54.561Z,15.77
2022-12-14T00:11:47.855Z,16.83
2022-12-14T00:16:41.175Z,17.03
2022-12-14T00:21:34.544Z,17.83
2022-12-14T00:26:32.206Z,17.40
2022-12-14T00:31:26.837Z,17.13
2022-12-14T00:36:20.504Z,18.10
2022-12-14T00:41:14.049Z,16.10
2022-12-14T00:46:09.330Z,17.10
2022-12-14T00:51:02.933Z,17.40
2022-12-14T00:55:56.219Z,17.30
2022-12-14T01:01:00.443Z,17.37
2022-12-14T01:05:55.092Z,17.10
2022-12-14T01:10:48.430Z,18.13
2022-12-14T01:15:41.913Z,17.87
2022-12-14T01:20:35.214Z,17.93
2022-12-14T01:25:30.019Z,16.43
2022-12-14T01:30:23.351Z,16.67
2022-12-14T01:35:17.344Z,18.67
2022-12-14T01:40:11.564Z,17.80
2022-12-14T01:45:17.761Z,17.73
2022-12-14T01:50:24.186Z,17.63
2022-12-14T01:55:22.691Z,18.00
2022-12-14T02:00:18.217Z,17.70
2022-12-14T02:05:15.242Z,17.67
2022-12-14T02:10:10.983Z,18.93
2022-12-14T02:15:05.216Z,17.67
2022-12-14T02:20:00.318Z,19.53
2022-12-14T02:25:16.610Z,18.23
2022-12-14T02:30:16.045Z,18.00
2022-12-14T02:35:23.799Z,19.20
2022-12-14T02:40:29.554Z,18.60
2022-12-14T02:45:35.696Z,19.67
2022-12-14T02:50:40.006Z,17.53
2022-12-14T02:55:40.084Z,19.07
2022-12-14T03:00:38.576Z,18.83
2022-12-14T03:05:31.901Z,18.70
2022-12-14T03:10:38.654Z,20.20
2022-12-14T03:15:37.792Z,19.73
2022-12-14T03:20:36.651Z,19.53
2022-12-14T03:25:36.418Z,18.33
2022-12-14T03:30:58.706Z,19.43
2022-12-14T03:35:57.819Z,19.03
2022-12-14T03:41:04.858Z,20.67
2022-12-14T03:46:09.562Z,19.97
2022-12-14T03:51:19.229Z,21.63
2022-12-14T03:56:22.340Z,21.33
2022-12-14T04:01:28.579Z,19.77
2022-12-14T04:06:36.085Z,21.27
2022-12-14T04:11:53.918Z,20.73
2022-12-14T04:17:09.818Z,24.10
2022-12-14T04:22:12.646Z,20.83
2022-12-14T04:27:12.424Z,21.03
2022-12-14T04:32:14.758Z,22.43
2022-12-14T04:37:18.372Z,21.70
2022-12-14T04:42:16.092Z,21.67
2022-12-14T04:47:15.095Z,22.23
2022-12-14T04:52:17.182Z,22.47
2022-12-14T04:57:20.696Z,23.20
2022-12-14T05:02:29.916Z,23.17
2022-12-14T05:07:38.788Z,23.50
2022-12-14T05:12:41.527Z,21.27
2022-12-14T05:17:37.494Z,24.70
2022-12-14T05:22:32.143Z,25.27
2022-12-14T05:27:25.452Z,23.97
2022-12-14T05:32:18.787Z,23.07
2022-12-14T05:37:17.966Z,21.87
2022-12-14T05:42:13.102Z,24.30
2022-12-14T05:47:06.589Z,22.10
2022-12-14T05:51:59.927Z,25.70
2022-12-14T05:56:53.261Z,24.20
2022-12-14T06:01:49.382Z,24.43
2022-12-14T06:06:43.809Z,24.60
2022-12-14T06:11:39.979Z,24.13
2022-12-14T06:16:33.263Z,24.37
2022-12-14T06:21:30.848Z,23.47
2022-12-14T06:26:25.089Z,24.97
2022-12-14T06:31:21.176Z,24.70
2022-12-14T06:36:23.939Z,25.23
2022-12-14T06:41:19.321Z,25.53
2022-12-14T06:46:16.007Z,24.73
2022-12-14T06:51:10.392Z,24.17
2022-12-14T06:56:08.756Z,25.80
2022-12-14T07:01:05.572Z,25.63
2022-12-14T07:05:59.461Z,25.83
2022-12-14T07:10:56.326Z,25.30
2022-12-14T07:15:57.306Z,25.63
2022-12-14T07:20:58.722Z,25.07
2022-12-14T07:25:52.391Z,26.80
2022-12-14T07:30:45.774Z,28.80
2022-12-14T07:35:39.261Z,24.80
2022-12-14T07:40:36.395Z,25.97
2022-12-14T07:45:29.668Z,25.20
2022-12-14T07:50:22.964Z,24.37
2022-12-14T07:55:16.582Z,24.23
2022-12-14T08:00:13.092Z,27.30
2022-12-14T08:05:12.283Z,28.07
2022-12-14T08:10:07.065Z,26.60
2022-12-14T08:15:00.335Z,24.83
2022-12-14T08:19:54.989Z,23.37
2022-12-14T08:24:49.397Z,27.53
2022-12-14T08:29:43.350Z,27.80
2022-12-14T08:34:36.739Z,28.13
2022-12-14T08:39:31.332Z,26.57
2022-12-14T08:44:24.636Z,28.53
2022-12-14T08:49:18.018Z,28.07
2022-12-14T08:54:11.437Z,28.17
2022-12-14T08:59:06.177Z,31.37
2022-12-14T09:04:05.206Z,30.83
2022-12-14T09:09:02.076Z,31.37
2022-12-14T09:13:56.556Z,29.73
2022-12-14T09:18:51.501Z,27.50
2022-12-14T09:23:45.060Z,28.73
2022-12-14T09:28:41.633Z,29.80
2022-12-14T09:33:35.371Z,31.30
2022-12-14T09:38:32.926Z,30.90
2022-12-14T09:43:42.080Z,32.30
2022-12-14T09:48:37.768Z,33.17
2022-12-14T09:53:32.846Z,33.90
2022-12-14T09:58:30.586Z,31.73
2022-12-14T10:03:54.090Z,31.73
2022-12-14T10:08:57.764Z,33.20
2022-12-14T10:14:09.443Z,31.27
2022-12-14T10:19:26.024Z,29.77
2022-12-14T10:24:27.136Z,27.90
2022-12-14T10:29:33.301Z,31.93
2022-12-14T10:34:33.061Z,30.33
2022-12-14T10:39:49.945Z,31.47
2022-12-14T10:45:23.511Z,34.47
2022-12-14T10:50:25.695Z,34.33
2022-12-14T10:55:29.113Z,33.37
2022-12-14T11:00:23.446Z,30.47
2022-12-14T11:05:36.056Z,33.47
2022-12-14T11:10:36.023Z,32.47
2022-12-14T11:15:34.599Z,31.97
2022-12-14T11:20:28.158Z,33.30
2022-12-14T11:25:40.046Z,31.83
2022-12-14T11:30:33.601Z,31.13
2022-12-14T11:35:26.968Z,32.23
2022-12-14T11:40:25.739Z,31.87
2022-12-14T11:45:34.128Z,32.57
2022-12-14T11:50:32.597Z,31.87
2022-12-14T11:55:36.742Z,32.73
2022-12-14T12:00:47.151Z,32.50
2022-12-14T12:05:44.666Z,32.83
2022-12-14T12:10:42.916Z,32.77
2022-12-14T12:15:41.841Z,34.00
2022-12-14T12:20:41.339Z,35.23
2022-12-14T12:25:37.888Z,34.40
2022-12-14T12:30:40.716Z,32.40
2022-12-14T12:35:44.217Z,30.77
2022-12-14T12:40:50.825Z,33.37
2022-12-14T12:45:50.823Z,32.53
2022-12-14T12:50:49.525Z,35.10
2022-12-14T12:55:51.003Z,33.37
2022-12-14T13:00:51.693Z,34.00
2022-12-14T13:05:48.093Z,35.10
2022-12-14T13:11:17.277Z,39.00
2022-12-14T13:16:17.939Z,31.57
2022-12-14T13:21:30.221Z,34.13
2022-12-14T13:27:04.548Z,33.37
2022-12-14T13:32:16.350Z,30.43
2022-12-14T13:37:48.903Z,31.33
2022-12-14T13:42:56.985Z,32.80
2022-12-14T13:47:56.458Z,34.67
2022-12-14T13:52:51.702Z,29.20
2022-12-14T13:57:45.175Z,30.90
2022-12-14T14:02:41.605Z,35.43
2022-12-14T14:07:53.603Z,35.37
2022-12-14T14:12:46.983Z,32.47
2022-12-14T14:17:44.638Z,35.40
2022-12-14T14:22:39.322Z,34.07
2022-12-14T14:27:39.710Z,43.60
2022-12-14T14:32:42.429Z,39.07
2022-12-14T14:37:42.041Z,33.97
2022-12-14T14:42:43.375Z,37.50
2022-12-14T14:47:39.439Z,39.80
2022-12-14T14:53:12.757Z,40.00
2022-12-14T14:58:22.804Z,38.97
2022-12-14T15:03:19.687Z,33.73
2022-12-14T15:08:23.792Z,36.33
2022-12-14T15:13:24.251Z,34.67
2022-12-14T15:18:22.753Z,37.73
2022-12-14T15:23:17.877Z,35.60
2022-12-14T15:28:28.129Z,31.23
2022-12-14T15:33:28.499Z,32.60
2022-12-14T15:38:29.008Z,37.33
2022-12-14T15:43:24.868Z,36.87
2022-12-14T15:48:25.849Z,35.50
2022-12-14T15:53:31.495Z,33.27
2022-12-14T15:58:33.452Z,33.73
2022-12-14T16:03:33.543Z,30.50
2022-12-14T16:08:33.248Z,31.70
2022-12-14T16:13:31.768Z,33.47
2022-12-14T16:18:26.543Z,38.17
2022-12-14T16:23:32.648Z,39.80
2022-12-14T16:28:31.097Z,72.43
2022-12-14T16:33:25.777Z,93.47
2022-12-14T16:38:19.552Z,55.33
2022-12-14T16:43:35.301Z,54.07
2022-12-14T16:48:28.946Z,48.53
2022-12-14T16:53:26.293Z,49.57
2022-12-14T16:58:19.690Z,50.43
2022-12-14T17:03:24.568Z,49.13
2022-12-14T17:08:18.883Z,46.97
2022-12-14T17:13:12.270Z,46.87
2022-12-14T17:18:08.275Z,43.63
2022-12-14T17:23:03.881Z,41.63
2022-12-14T17:27:57.602Z,42.13
2022-12-14T17:32:53.351Z,86.50
2022-12-14T17:37:46.757Z,46.07
2022-12-14T17:42:50.899Z,53.00
2022-12-14T17:47:47.006Z,47.90
2022-12-14T17:52:40.235Z,46.30
2022-12-14T17:57:33.587Z,53.70
2022-12-14T18:02:33.846Z,49.77
2022-12-14T18:07:27.719Z,49.90
2022-12-14T18:12:23.607Z,44.07
2022-12-14T18:17:17.516Z,35.83
2022-12-14T18:22:13.263Z,32.80
2022-12-14T18:27:07.554Z,37.30
2022-12-14T18:32:01.501Z,35.93
2022-12-14T18:36:55.189Z,34.27
2022-12-14T18:41:49.943Z,33.03
2022-12-14T18:46:43.409Z,33.47
2022-12-14T18:51:42.895Z,34.97
2022-12-14T18:56:53.416Z,32.07
2022-12-14T19:01:52.362Z,30.73
2022-12-14T19:06:46.215Z,31.70
2022-12-14T19:11:42.755Z,36.67
2022-12-14T19:16:36.313Z,62.93
2022-12-14T19:21:31.632Z,37.43
2022-12-14T19:26:25.216Z,34.37
2022-12-14T19:31:18.671Z,29.83
2022-12-14T19:36:14.730Z,37.10
2022-12-14T19:41:13.604Z,30.40
2022-12-14T19:46:08.749Z,32.80
2022-12-14T19:51:05.875Z,30.17
2022-12-14T19:55:59.373Z,28.47
2022-12-14T20:00:54.375Z,37.63
2022-12-14T20:05:56.667Z,110.20
2022-12-14T20:10:52.684Z,61.93
2022-12-14T20:15:50.791Z,60.13
2022-12-14T20:21:10.801Z,53.70
2022-12-14T20:32:13.323Z,30.10
2022-12-14T21:07:35.346Z,29.77
2022-12-14T21:12:28.786Z,30.37
2022-12-14T21:17:28.685Z,31.07
2022-12-14T23:11:16.262Z,30.77
2022-12-14T23:16:27.077Z,29.10
2022-12-14T23:21:39.142Z,32.83
2022-12-14T23:52:04.860Z,24.33
